Time;durP1;ratioP1;P1;durP2;ratioP2;P2;SDS_P1;SDS_P2;PMS_P1;PMS_P2;Temp;Humidity;BMP_temperature;BMP_pressure;BME280_temperature;BME280_humidity;BME280_pressure;Samples;Min_cycle;Max_cycle;Signal;HPM_P1;HPM_P2
2022/07/26 00:06:07;;;;;;;3.8;6.8;;;;;;;16;100;97950;;;;
2022/07/26 00:16:07;;;;;;;3.8;6.8;;;;;;;15.8;100;97930;;;;
2022/07/26 00:27:07;;;;;;;4.4;8.7;;;;;;;15.6;100;97930;;;;
2022/07/26 00:38:07;;;;;;;4.4;8.7;;;;;;;15.6;100;97920;;;;
2022/07/26 00:48:07;;;;;;;5.9;8.8;;;;;;;15.5;100;97920;;;;
2022/07/26 00:59:07;;;;;;;5.9;8.8;;;;;;;15.4;100;97910;;;;
2022/07/26 01:09:07;;;;;;;5.9;8.8;;;;;;;15.3;100;97910;;;;
2022/07/26 01:20:07;;;;;;;6.3;11.3;;;;;;;15.2;100;97890;;;;
2022/07/26 01:31:07;;;;;;;6.3;11.3;;;;;;;15.2;100;97880;;;;
2022/07/26 01:42:07;;;;;;;6.3;11.3;;;;;;;15.2;100;97880;;;;
2022/07/26 01:53:07;;;;;;;6.4;9.9;;;;;;;15.1;100;97870;;;;
2022/07/26 02:04:07;;;;;;;6.4;9.9;;;;;;;15.2;100;97850;;;;
2022/07/26 02:14:07;;;;;;;6.4;9.9;;;;;;;15.2;100;97840;;;;
2022/07/26 02:24:07;;;;;;;6.2;10.7;;;;;;;15.2;100;97840;;;;
2022/07/26 02:35:07;;;;;;;6.2;10.7;;;;;;;15.2;100;97850;;;;
2022/07/26 02:45:07;;;;;;;6.2;10.7;;;;;;;15.3;100;97840;;;;
2022/07/26 02:55:07;;;;;;;6.9;10.3;;;;;;;15.2;100;97830;;;;
2022/07/26 03:05:07;;;;;;;6.9;10.3;;;;;;;15.3;100;97810;;;;
2022/07/26 03:16:07;;;;;;;6.9;10.3;;;;;;;15.4;100;97800;;;;
2022/07/26 03:27:07;;;;;;;6.3;10;;;;;;;15.5;100;97800;;;;
2022/07/26 03:37:07;;;;;;;6.3;10;;;;;;;15.9;100;97800;;;;
2022/07/26 03:48:07;;;;;;;5.8;8.7;;;;;;;16.1;100;97790;;;;
2022/07/26 03:59:07;;;;;;;5.8;8.7;;;;;;;16.2;100;97780;;;;
2022/07/26 04:09:07;;;;;;;5.8;8.7;;;;;;;16.5;100;97770;;;;
2022/07/26 04:19:07;;;;;;;4.8;7.5;;;;;;;16.8;100;97780;;;;
2022/07/26 04:29:07;;;;;;;4.8;7.5;;;;;;;17.1;100;97780;;;;
2022/07/26 04:40:07;;;;;;;4.8;7.5;;;;;;;17.5;100;97780;;;;
2022/07/26 04:50:07;;;;;;;5.4;8.3;;;;;;;17.9;100;97770;;;;
2022/07/26 05:00:07;;;;;;;5.4;8.3;;;;;;;18.7;100;97780;;;;
2022/07/26 05:11:07;;;;;;;5.4;8.3;;;;;;;19.1;100;97790;;;;
2022/07/26 05:22:07;;;;;;;5.5;9.1;;;;;;;19.6;100;97790;;;;
2022/07/26 05:32:06;;;;;;;5.5;9.1;;;;;;;19.9;100;97800;;;;
2022/07/26 05:42:07;;;;;;;5.5;9.1;;;;;;;20.4;100;97790;;;;
2022/07/26 05:53:07;;;;;;;5.9;7.9;;;;;;;21.5;100;97800;;;;
2022/07/26 06:03:20;;;;;;;5.9;7.9;;;;;;;21.8;100;97840;;;;
2022/07/26 06:14:07;;;;;;;5.9;7.9;;;;;;;21.5;100;97880;;;;
2022/07/26 06:25:06;;;;;;;6;10.5;;;;;;;22;100;97880;;;;
2022/07/26 06:35:06;;;;;;;6;10.5;;;;;;;22.7;100;97890;;;;
2022/07/26 06:46:06;;;;;;;6;10.5;;;;;;;23.3;100;97900;;;;
2022/07/26 06:57:07;;;;;;;5.5;10.2;;;;;;;24;100;97900;;;;
2022/07/26 07:08:06;;;;;;;5.5;10.2;;;;;;;24.3;100;97920;;;;
2022/07/26 07:18:06;;;;;;;6.4;12.1;;;;;;;24.8;100;97930;;;;
2022/07/26 07:29:08;;;;;;;6.4;12.1;;;;;;;25.4;100;97940;;;;
2022/07/26 07:39:06;;;;;;;6.4;12.1;;;;;;;25.8;100;97960;;;;
2022/07/26 07:50:06;;;;;;;7;12.6;;;;;;;25.8;100;97970;;;;
2022/07/26 08:00:08;;;;;;;7;12.6;;;;;;;25.8;100;97980;;;;
2022/07/26 08:11:06;;;;;;;7;12.6;;;;;;;25.4;100;98010;;;;
2022/07/26 08:22:07;;;;;;;6.5;11.2;;;;;;;25.5;100;98030;;;;
2022/07/26 08:33:06;;;;;;;6.5;11.2;;;;;;;24.9;100;98060;;;;
2022/07/26 08:43:07;;;;;;;6.5;11.2;;;;;;;24.6;100;98080;;;;
2022/07/26 08:54:06;;;;;;;9.3;12.5;;;;;;;23.7;100;98100;;;;
2022/07/26 09:05:06;;;;;;;9.3;12.5;;;;;;;23.4;100;98110;;;;
2022/07/26 09:16:06;;;;;;;9.3;12.5;;;;;;;22.8;100;98120;;;;
2022/07/26 09:27:06;;;;;;;10.1;13.5;;;;;;;22.5;100;98140;;;;
2022/07/26 09:38:06;;;;;;;10.1;13.5;;;;;;;22.4;100;98160;;;;
2022/07/26 09:48:08;;;;;;;10.8;12.7;;;;;;;22.1;100;98160;;;;
2022/07/26 09:59:06;;;;;;;10.8;12.7;;;;;;;21.8;100;98170;;;;
2022/07/26 10:10:06;;;;;;;10.8;12.7;;;;;;;21.9;100;98190;;;;
2022/07/26 10:21:06;;;;;;;11.9;14.7;;;;;;;22.2;100;98200;;;;
2022/07/26 10:32:07;;;;;;;11.9;14.7;;;;;;;22.1;100;98200;;;;
2022/07/26 10:42:06;;;;;;;11.9;14.7;;;;;;;21.8;100;98220;;;;
2022/07/26 10:53:06;;;;;;;11.4;13.5;;;;;;;21.5;100;98210;;;;
2022/07/26 11:04:06;;;;;;;11.4;13.5;;;;;;;21.4;100;98210;;;;
2022/07/26 11:14:06;;;;;;;11.4;13.5;;;;;;;21.5;100;98220;;;;
2022/07/26 11:25:06;;;;;;;12.7;16.9;;;;;;;21.2;100;98220;;;;
2022/07/26 11:35:06;;;;;;;12.7;16.9;;;;;;;21.3;100;98230;;;;
2022/07/26 11:46:06;;;;;;;12.7;16.9;;;;;;;21.5;100;98230;;;;
2022/07/26 11:56:06;;;;;;;14.3;17.1;;;;;;;21.6;100;98220;;;;
2022/07/26 12:06:06;;;;;;;14.3;17.1;;;;;;;21.5;100;98220;;;;
2022/07/26 12:17:06;;;;;;;14.3;17.1;;;;;;;21.6;100;98210;;;;
2022/07/26 12:27:06;;;;;;;12.8;14.8;;;;;;;21.7;100;98210;;;;
2022/07/26 12:38:06;;;;;;;12.8;14.8;;;;;;;21.5;100;98210;;;;
2022/07/26 12:48:08;;;;;;;10.5;15;;;;;;;21.2;100;98210;;;;
2022/07/26 12:59:06;;;;;;;10.5;15;;;;;;;21.2;100;98210;;;;
2022/07/26 13:09:06;;;;;;;10.5;15;;;;;;;20.9;100;98220;;;;
2022/07/26 13:20:06;;;;;;;9.9;13;;;;;;;20.4;100;98240;;;;
2022/07/26 13:30:06;;;;;;;9.9;13;;;;;;;19.7;100;98250;;;;
2022/07/26 13:40:06;;;;;;;9.9;13;;;;;;;19.2;100;98270;;;;
2022/07/26 13:50:06;;;;;;;5.3;8.6;;;;;;;19;100;98300;;;;
2022/07/26 14:01:06;;;;;;;5.3;8.6;;;;;;;19;100;98310;;;;
2022/07/26 14:12:06;;;;;;;5.3;8.6;;;;;;;19.4;100;98310;;;;
2022/07/26 14:22:06;;;;;;;4.8;7.9;;;;;;;19.3;100;98310;;;;
2022/07/26 14:32:06;;;;;;;4.8;7.9;;;;;;;19.4;100;98310;;;;
2022/07/26 14:43:06;;;;;;;4.8;7.9;;;;;;;19.6;100;98300;;;;
2022/07/26 14:54:06;;;;;;;6.6;9.9;;;;;;;19.9;100;98300;;;;
2022/07/26 15:05:07;;;;;;;6.6;9.9;;;;;;;19.7;100;98310;;;;
2022/07/26 15:15:06;;;;;;;6.6;9.9;;;;;;;19.8;100;98320;;;;
2022/07/26 15:26:06;;;;;;;6;12;;;;;;;19.8;100;98320;;;;
2022/07/26 15:36:06;;;;;;;6;12;;;;;;;19.8;100;98310;;;;
2022/07/26 15:46:06;;;;;;;6;12;;;;;;;19.7;100;98320;;;;
2022/07/26 15:56:06;;;;;;;7;10.3;;;;;;;19.6;100;98330;;;;
2022/07/26 16:07:06;;;;;;;7;10.3;;;;;;;19.7;100;98340;;;;
2022/07/26 16:18:06;;;;;;;5.8;8.1;;;;;;;19.6;100;98340;;;;
2022/07/26 16:29:06;;;;;;;5.8;8.1;;;;;;;19.3;100;98340;;;;
2022/07/26 16:39:06;;;;;;;5.8;8.1;;;;;;;19.5;100;98340;;;;
2022/07/26 16:50:06;;;;;;;7;9.4;;;;;;;19.5;100;98330;;;;
2022/07/26 17:00:07;;;;;;;7;9.4;;;;;;;19.5;100;98320;;;;
2022/07/26 17:11:06;;;;;;;7;9.4;;;;;;;19.5;100;98330;;;;
2022/07/26 17:22:06;;;;;;;6.4;9.9;;;;;;;19.5;100;98330;;;;
2022/07/26 17:32:06;;;;;;;6.4;9.9;;;;;;;19.7;100;98340;;;;
2022/07/26 17:43:06;;;;;;;6.4;9.9;;;;;;;19.2;100;98330;;;;
2022/07/26 17:53:06;;;;;;;6.5;10.2;;;;;;;19;100;98340;;;;
2022/07/26 18:04:07;;;;;;;6.5;10.2;;;;;;;18.9;100;98360;;;;
2022/07/26 18:15:07;;;;;;;6.5;10.2;;;;;;;18.8;100;98340;;;;
2022/07/26 18:26:06;;;;;;;6.8;9.8;;;;;;;18.8;100;98350;;;;
2022/07/26 18:37:06;;;;;;;6.8;9.8;;;;;;;18.7;100;98370;;;;
2022/07/26 18:47:06;;;;;;;6.8;9.8;;;;;;;18.5;100;98370;;;;
2022/07/26 18:57:06;;;;;;;7.2;11.8;;;;;;;18.2;100;98360;;;;
2022/07/26 19:07:06;;;;;;;7.2;11.8;;;;;;;17.9;100;98360;;;;
2022/07/26 19:18:06;;;;;;;7.2;11.8;;;;;;;17.6;100;98340;;;;
2022/07/26 19:29:06;;;;;;;7.5;10.6;;;;;;;17.5;100;98340;;;;
2022/07/26 19:39:07;;;;;;;7.5;10.6;;;;;;;17.4;100;98340;;;;
2022/07/26 19:49:06;;;;;;;6.2;10.5;;;;;;;17.5;100;98350;;;;
2022/07/26 19:59:06;;;;;;;6.2;10.5;;;;;;;17.4;100;98350;;;;
2022/07/26 20:10:06;;;;;;;6.2;10.5;;;;;;;17.2;100;98350;;;;
2022/07/26 20:21:06;;;;;;;6.2;8.8;;;;;;;16.9;100;98350;;;;
2022/07/26 20:31:06;;;;;;;6.2;8.8;;;;;;;16.7;100;98360;;;;
2022/07/26 20:41:06;;;;;;;6.2;8.8;;;;;;;16.4;100;98350;;;;
2022/07/26 20:51:08;;;;;;;5.4;7.9;;;;;;;16.2;100;98360;;;;
2022/07/26 21:02:06;;;;;;;5.4;7.9;;;;;;;16.1;100;98370;;;;
2022/07/26 21:13:06;;;;;;;5.4;7.9;;;;;;;15.9;100;98370;;;;
2022/07/26 21:23:06;;;;;;;5;8;;;;;;;15.6;100;98380;;;;
2022/07/26 21:34:06;;;;;;;5;8;;;;;;;15.5;100;98390;;;;
2022/07/26 21:44:06;;;;;;;5;8;;;;;;;15.4;100;98390;;;;
2022/07/26 21:55:06;;;;;;;5.8;8;;;;;;;15.3;100;98400;;;;
2022/07/26 22:05:33;;;;;;;5.8;8;;;;;;;15.1;100;98400;;;;
2022/07/26 22:16:06;;;;;;;5.8;8;;;;;;;15;100;98400;;;;
2022/07/26 22:26:06;;;;;;;5.8;8.8;;;;;;;14.9;100;98390;;;;
2022/07/26 22:37:06;;;;;;;5.8;8.8;;;;;;;14.9;100;98400;;;;
2022/07/26 22:47:06;;;;;;;5.8;8.8;;;;;;;14.8;100;98400;;;;
2022/07/26 22:57:06;;;;;;;6.6;9.8;;;;;;;14.8;100;98400;;;;
2022/07/26 23:08:06;;;;;;;6.6;9.8;;;;;;;14.6;100;98400;;;;
2022/07/26 23:18:06;;;;;;;6;9.3;;;;;;;14.6;100;98400;;;;
2022/07/26 23:29:07;;;;;;;6;9.3;;;;;;;14.6;100;98410;;;;
2022/07/26 23:39:06;;;;;;;6;9.3;;;;;;;14.5;100;98400;;;;
2022/07/26 23:49:06;;;;;;;5.4;8.3;;;;;;;14.4;100;98400;;;;
